sensor_id;sensor_type;location;lat;lon;timestamp;P1;durP1;ratioP1;P2;durP2;ratioP2
1825;SDS011;912;48.130;11.348;2022-08-07T00:01:00;7.07;;;5.20;;
1825;SDS011;912;48.130;11.348;2022-08-07T00:03:42;4.82;;;3.60;;
1825;SDS011;912;48.130;11.348;2022-08-07T00:06:24;5.37;;;4.18;;
1825;SDS011;912;48.130;11.348;2022-08-07T00:09:05;5.97;;;4.32;;
1825;SDS011;912;48.130;11.348;2022-08-07T00:11:47;6.15;;;4.40;;
1825;SDS011;912;48.130;11.348;2022-08-07T00:14:29;4.43;;;3.35;;
1825;SDS011;912;48.130;11.348;2022-08-07T00:17:10;6.12;;;3.80;;
1825;SDS011;912;48.130;11.348;2022-08-07T00:19:52;4.90;;;2.97;;
1825;SDS011;912;48.130;11.348;2022-08-07T00:22:34;6.95;;;3.55;;
1825;SDS011;912;48.130;11.348;2022-08-07T00:25:16;8.85;;;3.10;;
1825;SDS011;912;48.130;11.348;2022-08-07T00:28:03;4.43;;;2.87;;
1825;SDS011;912;48.130;11.348;2022-08-07T00:30:45;4.37;;;3.10;;
1825;SDS011;912;48.130;11.348;2022-08-07T00:35:50;3.55;;;2.80;;
1825;SDS011;912;48.130;11.348;2022-08-07T00:38:36;4.03;;;2.83;;
1825;SDS011;912;48.130;11.348;2022-08-07T00:41:24;3.95;;;2.58;;
1825;SDS011;912;48.130;11.348;2022-08-07T00:44:05;3.03;;;2.12;;
1825;SDS011;912;48.130;11.348;2022-08-07T00:46:46;2.30;;;2.10;;
1825;SDS011;912;48.130;11.348;2022-08-07T00:49:28;2.53;;;1.98;;
1825;SDS011;912;48.130;11.348;2022-08-07T00:52:10;3.50;;;2.40;;
1825;SDS011;912;48.130;11.348;2022-08-07T00:54:52;1.58;;;1.20;;
1825;SDS011;912;48.130;11.348;2022-08-07T00:57:34;2.08;;;1.50;;
1825;SDS011;912;48.130;11.348;2022-08-07T01:02:53;2.55;;;1.65;;
1825;SDS011;912;48.130;11.348;2022-08-07T01:08:09;1.58;;;1.48;;
1825;SDS011;912;48.130;11.348;2022-08-07T01:10:50;2.15;;;1.50;;
1825;SDS011;912;48.130;11.348;2022-08-07T01:13:32;2.60;;;1.70;;
1825;SDS011;912;48.130;11.348;2022-08-07T01:16:15;2.65;;;1.85;;
1825;SDS011;912;48.130;11.348;2022-08-07T01:18:56;1.58;;;1.08;;
1825;SDS011;912;48.130;11.348;2022-08-07T01:21:37;1.77;;;1.60;;
1825;SDS011;912;48.130;11.348;2022-08-07T01:24:19;1.85;;;1.37;;
1825;SDS011;912;48.130;11.348;2022-08-07T01:27:04;3.50;;;1.50;;
1825;SDS011;912;48.130;11.348;2022-08-07T01:29:45;3.70;;;2.00;;
1825;SDS011;912;48.130;11.348;2022-08-07T01:32:27;1.92;;;1.40;;
1825;SDS011;912;48.130;11.348;2022-08-07T01:35:49;2.80;;;1.70;;
1825;SDS011;912;48.130;11.348;2022-08-07T01:38:31;3.10;;;1.50;;
1825;SDS011;912;48.130;11.348;2022-08-07T01:41:13;1.37;;;1.20;;
1825;SDS011;912;48.130;11.348;2022-08-07T01:43:54;1.70;;;1.50;;
1825;SDS011;912;48.130;11.348;2022-08-07T01:46:37;2.17;;;1.37;;
1825;SDS011;912;48.130;11.348;2022-08-07T01:49:18;5.85;;;1.40;;
1825;SDS011;912;48.130;11.348;2022-08-07T01:51:59;2.08;;;1.77;;
1825;SDS011;912;48.130;11.348;2022-08-07T01:54:41;2.03;;;1.40;;
1825;SDS011;912;48.130;11.348;2022-08-07T01:57:25;1.75;;;1.50;;
1825;SDS011;912;48.130;11.348;2022-08-07T02:00:06;3.67;;;1.40;;
1825;SDS011;912;48.130;11.348;2022-08-07T02:02:51;2.00;;;1.30;;
1825;SDS011;912;48.130;11.348;2022-08-07T02:05:37;2.10;;;1.40;;
1825;SDS011;912;48.130;11.348;2022-08-07T02:08:19;1.55;;;1.00;;
1825;SDS011;912;48.130;11.348;2022-08-07T02:11:00;3.40;;;1.60;;
1825;SDS011;912;48.130;11.348;2022-08-07T02:13:42;2.62;;;1.50;;
1825;SDS011;912;48.130;11.348;2022-08-07T02:16:24;1.90;;;1.55;;
1825;SDS011;912;48.130;11.348;2022-08-07T02:19:09;2.53;;;1.48;;
1825;SDS011;912;48.130;11.348;2022-08-07T02:21:49;2.00;;;1.30;;
1825;SDS011;912;48.130;11.348;2022-08-07T02:24:31;1.85;;;1.65;;
1825;SDS011;912;48.130;11.348;2022-08-07T02:27:13;1.30;;;0.93;;
1825;SDS011;912;48.130;11.348;2022-08-07T02:29:58;1.55;;;1.17;;
1825;SDS011;912;48.130;11.348;2022-08-07T02:32:39;1.70;;;1.30;;
1825;SDS011;912;48.130;11.348;2022-08-07T02:38:28;1.90;;;1.27;;
1825;SDS011;912;48.130;11.348;2022-08-07T02:41:09;2.20;;;1.30;;
1825;SDS011;912;48.130;11.348;2022-08-07T02:43:55;3.58;;;1.87;;
1825;SDS011;912;48.130;11.348;2022-08-07T02:46:36;2.20;;;1.47;;
1825;SDS011;912;48.130;11.348;2022-08-07T02:49:21;2.30;;;1.80;;
1825;SDS011;912;48.130;11.348;2022-08-07T02:52:03;2.45;;;1.48;;
1825;SDS011;912;48.130;11.348;2022-08-07T02:54:44;1.80;;;1.20;;
1825;SDS011;912;48.130;11.348;2022-08-07T02:57:26;1.17;;;0.98;;
1825;SDS011;912;48.130;11.348;2022-08-07T03:00:09;1.62;;;1.10;;
1825;SDS011;912;48.130;11.348;2022-08-07T03:02:51;1.10;;;1.00;;
1825;SDS011;912;48.130;11.348;2022-08-07T03:05:33;2.72;;;1.60;;
1825;SDS011;912;48.130;11.348;2022-08-07T03:08:15;1.58;;;1.27;;
1825;SDS011;912;48.130;11.348;2022-08-07T03:10:57;1.40;;;1.10;;
1825;SDS011;912;48.130;11.348;2022-08-07T03:13:38;0.98;;;0.88;;
1825;SDS011;912;48.130;11.348;2022-08-07T03:16:20;3.35;;;1.15;;
1825;SDS011;912;48.130;11.348;2022-08-07T03:19:01;1.35;;;1.25;;
1825;SDS011;912;48.130;11.348;2022-08-07T03:21:43;2.30;;;1.73;;
1825;SDS011;912;48.130;11.348;2022-08-07T03:24:28;1.95;;;1.62;;
1825;SDS011;912;48.130;11.348;2022-08-07T03:27:10;1.87;;;1.05;;
1825;SDS011;912;48.130;11.348;2022-08-07T03:29:52;2.50;;;1.40;;
1825;SDS011;912;48.130;11.348;2022-08-07T03:32:37;1.60;;;1.30;;
1825;SDS011;912;48.130;11.348;2022-08-07T03:35:50;1.70;;;1.20;;
1825;SDS011;912;48.130;11.348;2022-08-07T03:38:32;2.00;;;1.33;;
1825;SDS011;912;48.130;11.348;2022-08-07T03:41:13;2.70;;;2.50;;
1825;SDS011;912;48.130;11.348;2022-08-07T03:43:55;2.10;;;1.60;;
1825;SDS011;912;48.130;11.348;2022-08-07T03:46:37;1.77;;;1.45;;
1825;SDS011;912;48.130;11.348;2022-08-07T03:49:18;2.72;;;1.92;;
1825;SDS011;912;48.130;11.348;2022-08-07T03:52:00;3.85;;;2.40;;
1825;SDS011;912;48.130;11.348;2022-08-07T03:54:42;2.30;;;1.50;;
1825;SDS011;912;48.130;11.348;2022-08-07T03:57:24;1.42;;;1.33;;
1825;SDS011;912;48.130;11.348;2022-08-07T04:00:11;1.37;;;1.27;;
1825;SDS011;912;48.130;11.348;2022-08-07T04:02:52;1.48;;;1.02;;
1825;SDS011;912;48.130;11.348;2022-08-07T04:05:34;2.50;;;1.90;;
1825;SDS011;912;48.130;11.348;2022-08-07T04:08:16;2.55;;;1.15;;
1825;SDS011;912;48.130;11.348;2022-08-07T04:10:58;2.20;;;2.00;;
1825;SDS011;912;48.130;11.348;2022-08-07T04:13:40;2.85;;;1.77;;
1825;SDS011;912;48.130;11.348;2022-08-07T04:16:22;2.60;;;1.92;;
1825;SDS011;912;48.130;11.348;2022-08-07T04:19:07;2.28;;;2.08;;
1825;SDS011;912;48.130;11.348;2022-08-07T04:21:49;1.48;;;1.37;;
1825;SDS011;912;48.130;11.348;2022-08-07T04:24:30;2.12;;;1.75;;
1825;SDS011;912;48.130;11.348;2022-08-07T04:27:15;3.20;;;2.30;;
1825;SDS011;912;48.130;11.348;2022-08-07T04:29:57;3.30;;;1.80;;
1825;SDS011;912;48.130;11.348;2022-08-07T04:32:39;3.83;;;1.35;;
1825;SDS011;912;48.130;11.348;2022-08-07T04:35:50;2.35;;;2.15;;
1825;SDS011;912;48.130;11.348;2022-08-07T04:38:35;2.75;;;2.17;;
1825;SDS011;912;48.130;11.348;2022-08-07T04:41:17;3.37;;;2.60;;
1825;SDS011;912;48.130;11.348;2022-08-07T04:43:59;2.60;;;1.90;;
1825;SDS011;912;48.130;11.348;2022-08-07T04:46:44;1.77;;;1.67;;
1825;SDS011;912;48.130;11.348;2022-08-07T04:52:19;2.10;;;1.60;;
1825;SDS011;912;48.130;11.348;2022-08-07T04:57:46;3.17;;;2.57;;
1825;SDS011;912;48.130;11.348;2022-08-07T05:00:36;1.80;;;1.70;;
1825;SDS011;912;48.130;11.348;2022-08-07T05:03:19;2.28;;;1.95;;
1825;SDS011;912;48.130;11.348;2022-08-07T05:06:08;1.60;;;1.40;;
1825;SDS011;912;48.130;11.348;2022-08-07T05:11:29;2.30;;;1.60;;
1825;SDS011;912;48.130;11.348;2022-08-07T05:14:13;1.60;;;1.50;;
1825;SDS011;912;48.130;11.348;2022-08-07T05:17:02;2.40;;;1.60;;
1825;SDS011;912;48.130;11.348;2022-08-07T05:19:46;3.00;;;1.58;;
1825;SDS011;912;48.130;11.348;2022-08-07T05:22:30;1.87;;;1.67;;
1825;SDS011;912;48.130;11.348;2022-08-07T05:25:11;2.45;;;1.70;;
1825;SDS011;912;48.130;11.348;2022-08-07T05:27:53;3.25;;;1.75;;
1825;SDS011;912;48.130;11.348;2022-08-07T05:30:35;1.62;;;1.23;;
1825;SDS011;912;48.130;11.348;2022-08-07T05:35:50;3.20;;;2.10;;
1825;SDS011;912;48.130;11.348;2022-08-07T05:38:33;2.90;;;1.85;;
1825;SDS011;912;48.130;11.348;2022-08-07T05:41:15;3.00;;;1.90;;
1825;SDS011;912;48.130;11.348;2022-08-07T05:43:57;2.10;;;1.70;;
1825;SDS011;912;48.130;11.348;2022-08-07T05:46:39;1.70;;;1.33;;
1825;SDS011;912;48.130;11.348;2022-08-07T05:49:20;1.37;;;1.27;;
1825;SDS011;912;48.130;11.348;2022-08-07T05:52:02;2.70;;;1.95;;
1825;SDS011;912;48.130;11.348;2022-08-07T05:54:44;1.95;;;1.40;;
1825;SDS011;912;48.130;11.348;2022-08-07T05:57:32;1.80;;;1.40;;
1825;SDS011;912;48.130;11.348;2022-08-07T06:00:19;1.73;;;1.30;;
1825;SDS011;912;48.130;11.348;2022-08-07T06:03:01;1.40;;;1.30;;
1825;SDS011;912;48.130;11.348;2022-08-07T06:05:43;2.12;;;1.92;;
1825;SDS011;912;48.130;11.348;2022-08-07T06:08:30;1.45;;;1.35;;
1825;SDS011;912;48.130;11.348;2022-08-07T06:11:18;1.77;;;1.12;;
1825;SDS011;912;48.130;11.348;2022-08-07T06:16:01;4.60;;;1.60;;
1825;SDS011;912;48.130;11.348;2022-08-07T06:18:46;1.48;;;1.37;;
1825;SDS011;912;48.130;11.348;2022-08-07T06:21:28;1.95;;;1.75;;
1825;SDS011;912;48.130;11.348;2022-08-07T06:24:12;1.50;;;1.20;;
1825;SDS011;912;48.130;11.348;2022-08-07T06:26:54;2.42;;;1.40;;
1825;SDS011;912;48.130;11.348;2022-08-07T06:29:36;1.73;;;1.55;;
1825;SDS011;912;48.130;11.348;2022-08-07T06:32:17;1.58;;;1.48;;
1825;SDS011;912;48.130;11.348;2022-08-07T06:35:50;1.30;;;1.20;;
1825;SDS011;912;48.130;11.348;2022-08-07T06:38:32;1.90;;;1.20;;
1825;SDS011;912;48.130;11.348;2022-08-07T06:41:17;1.77;;;1.42;;
1825;SDS011;912;48.130;11.348;2022-08-07T06:44:01;1.60;;;1.50;;
1825;SDS011;912;48.130;11.348;2022-08-07T06:46:42;1.77;;;1.02;;
1825;SDS011;912;48.130;11.348;2022-08-07T06:49:24;2.60;;;1.50;;
1825;SDS011;912;48.130;11.348;2022-08-07T06:52:07;1.50;;;1.30;;
1825;SDS011;912;48.130;11.348;2022-08-07T06:54:48;1.20;;;1.10;;
1825;SDS011;912;48.130;11.348;2022-08-07T06:57:29;1.83;;;1.40;;
1825;SDS011;912;48.130;11.348;2022-08-07T07:00:11;1.23;;;1.10;;
1825;SDS011;912;48.130;11.348;2022-08-07T07:02:54;1.40;;;1.20;;
1825;SDS011;912;48.130;11.348;2022-08-07T07:06:00;1.85;;;1.25;;
1825;SDS011;912;48.130;11.348;2022-08-07T07:08:42;1.40;;;1.02;;
1825;SDS011;912;48.130;11.348;2022-08-07T07:11:24;1.40;;;1.30;;
1825;SDS011;912;48.130;11.348;2022-08-07T07:14:09;1.50;;;1.00;;
1825;SDS011;912;48.130;11.348;2022-08-07T07:16:52;1.63;;;1.10;;
1825;SDS011;912;48.130;11.348;2022-08-07T07:19:34;2.80;;;1.98;;
1825;SDS011;912;48.130;11.348;2022-08-07T07:22:14;2.03;;;1.25;;
1825;SDS011;912;48.130;11.348;2022-08-07T07:24:56;1.10;;;1.00;;
1825;SDS011;912;48.130;11.348;2022-08-07T07:27:40;1.60;;;1.50;;
1825;SDS011;912;48.130;11.348;2022-08-07T07:30:21;1.55;;;1.02;;
1825;SDS011;912;48.130;11.348;2022-08-07T07:35:50;2.67;;;1.20;;
1825;SDS011;912;48.130;11.348;2022-08-07T07:38:31;1.83;;;1.30;;
1825;SDS011;912;48.130;11.348;2022-08-07T07:41:16;0.90;;;0.90;;
1825;SDS011;912;48.130;11.348;2022-08-07T07:43:58;1.30;;;1.20;;
1825;SDS011;912;48.130;11.348;2022-08-07T07:46:42;1.47;;;1.30;;
1825;SDS011;912;48.130;11.348;2022-08-07T07:49:26;1.20;;;1.10;;
1825;SDS011;912;48.130;11.348;2022-08-07T07:52:09;1.10;;;0.90;;
1825;SDS011;912;48.130;11.348;2022-08-07T07:54:50;1.48;;;1.00;;
1825;SDS011;912;48.130;11.348;2022-08-07T07:57:32;1.50;;;1.10;;
1825;SDS011;912;48.130;11.348;2022-08-07T08:00:17;1.90;;;1.20;;
1825;SDS011;912;48.130;11.348;2022-08-07T08:03:00;1.70;;;1.30;;
1825;SDS011;912;48.130;11.348;2022-08-07T08:05:41;1.60;;;1.10;;
1825;SDS011;912;48.130;11.348;2022-08-07T08:08:23;1.52;;;1.30;;
1825;SDS011;912;48.130;11.348;2022-08-07T08:11:04;1.53;;;1.30;;
1825;SDS011;912;48.130;11.348;2022-08-07T08:13:46;1.20;;;1.10;;
1825;SDS011;912;48.130;11.348;2022-08-07T08:16:31;1.40;;;1.10;;
1825;SDS011;912;48.130;11.348;2022-08-07T08:19:13;4.10;;;1.10;;
1825;SDS011;912;48.130;11.348;2022-08-07T08:21:54;1.30;;;1.20;;
1825;SDS011;912;48.130;11.348;2022-08-07T08:24:44;1.00;;;0.90;;
1825;SDS011;912;48.130;11.348;2022-08-07T08:27:33;1.30;;;1.20;;
1825;SDS011;912;48.130;11.348;2022-08-07T08:30:13;1.42;;;1.00;;
1825;SDS011;912;48.130;11.348;2022-08-07T08:32:57;1.23;;;1.12;;
1825;SDS011;912;48.130;11.348;2022-08-07T08:38:37;1.30;;;1.00;;
1825;SDS011;912;48.130;11.348;2022-08-07T08:41:25;1.20;;;0.80;;
1825;SDS011;912;48.130;11.348;2022-08-07T08:44:14;1.60;;;1.00;;
1825;SDS011;912;48.130;11.348;2022-08-07T08:49:46;1.60;;;1.05;;
1825;SDS011;912;48.130;11.348;2022-08-07T08:55:06;1.92;;;0.93;;
1825;SDS011;912;48.130;11.348;2022-08-07T08:58:00;1.23;;;0.95;;
1825;SDS011;912;48.130;11.348;2022-08-07T09:00:48;1.12;;;0.88;;
1825;SDS011;912;48.130;11.348;2022-08-07T09:03:33;2.90;;;1.55;;
1825;SDS011;912;48.130;11.348;2022-08-07T09:06:20;1.20;;;1.02;;
1825;SDS011;912;48.130;11.348;2022-08-07T09:09:19;1.30;;;1.20;;
1825;SDS011;912;48.130;11.348;2022-08-07T09:12:09;1.90;;;1.60;;
1825;SDS011;912;48.130;11.348;2022-08-07T09:15:04;1.60;;;1.25;;
1825;SDS011;912;48.130;11.348;2022-08-07T09:18:20;1.60;;;1.10;;
1825;SDS011;912;48.130;11.348;2022-08-07T09:21:26;1.60;;;1.17;;
1825;SDS011;912;48.130;11.348;2022-08-07T09:27:22;1.20;;;1.08;;
1825;SDS011;912;48.130;11.348;2022-08-07T09:30:05;1.77;;;1.20;;
1825;SDS011;912;48.130;11.348;2022-08-07T09:35:54;1.15;;;1.05;;
1825;SDS011;912;48.130;11.348;2022-08-07T09:38:41;1.25;;;1.10;;
1825;SDS011;912;48.130;11.348;2022-08-07T09:44:47;0.90;;;0.90;;
1825;SDS011;912;48.130;11.348;2022-08-07T09:47:59;1.60;;;1.00;;
1825;SDS011;912;48.130;11.348;2022-08-07T09:50:40;2.37;;;1.50;;
1825;SDS011;912;48.130;11.348;2022-08-07T09:53:37;1.40;;;1.30;;
1825;SDS011;912;48.130;11.348;2022-08-07T09:59:28;2.20;;;1.17;;
1825;SDS011;912;48.130;11.348;2022-08-07T10:02:26;1.33;;;1.23;;
1825;SDS011;912;48.130;11.348;2022-08-07T10:10:51;1.33;;;1.23;;
1825;SDS011;912;48.130;11.348;2022-08-07T10:14:02;1.40;;;1.30;;
1825;SDS011;912;48.130;11.348;2022-08-07T10:16:37;1.70;;;1.20;;
1825;SDS011;912;48.130;11.348;2022-08-07T10:22:41;1.30;;;1.20;;
1825;SDS011;912;48.130;11.348;2022-08-07T10:25:46;1.27;;;1.10;;
1825;SDS011;912;48.130;11.348;2022-08-07T10:28:50;2.60;;;1.00;;
1825;SDS011;912;48.130;11.348;2022-08-07T10:31:59;1.60;;;1.33;;
1825;SDS011;912;48.130;11.348;2022-08-07T10:38:50;1.15;;;1.02;;
1825;SDS011;912;48.130;11.348;2022-08-07T10:41:51;2.00;;;1.17;;
1825;SDS011;912;48.130;11.348;2022-08-07T10:44:39;1.50;;;1.10;;
1825;SDS011;912;48.130;11.348;2022-08-07T10:50:28;2.20;;;1.00;;
1825;SDS011;912;48.130;11.348;2022-08-07T10:53:12;1.20;;;1.02;;
1825;SDS011;912;48.130;11.348;2022-08-07T10:56:08;1.30;;;1.20;;
1825;SDS011;912;48.130;11.348;2022-08-07T10:59:07;2.50;;;1.17;;
1825;SDS011;912;48.130;11.348;2022-08-07T11:02:12;1.50;;;1.40;;
1825;SDS011;912;48.130;11.348;2022-08-07T11:05:31;1.20;;;1.10;;
1825;SDS011;912;48.130;11.348;2022-08-07T11:08:35;1.83;;;1.15;;
1825;SDS011;912;48.130;11.348;2022-08-07T11:11:24;1.30;;;1.20;;
1825;SDS011;912;48.130;11.348;2022-08-07T11:14:20;1.10;;;1.00;;
1825;SDS011;912;48.130;11.348;2022-08-07T11:17:05;1.40;;;1.12;;
1825;SDS011;912;48.130;11.348;2022-08-07T11:19:47;1.50;;;0.90;;
1825;SDS011;912;48.130;11.348;2022-08-07T11:22:41;1.30;;;1.20;;
1825;SDS011;912;48.130;11.348;2022-08-07T11:25:23;1.20;;;1.10;;
1825;SDS011;912;48.130;11.348;2022-08-07T11:28:05;0.93;;;0.93;;
1825;SDS011;912;48.130;11.348;2022-08-07T11:30:55;1.27;;;1.10;;
1825;SDS011;912;48.130;11.348;2022-08-07T11:35:53;1.20;;;1.10;;
1825;SDS011;912;48.130;11.348;2022-08-07T11:38:41;0.93;;;0.93;;
1825;SDS011;912;48.130;11.348;2022-08-07T11:41:21;1.57;;;1.23;;
1825;SDS011;912;48.130;11.348;2022-08-07T11:47:08;1.10;;;1.00;;
1825;SDS011;912;48.130;11.348;2022-08-07T11:53:23;1.50;;;1.15;;
1825;SDS011;912;48.130;11.348;2022-08-07T11:56:16;0.90;;;0.90;;
1825;SDS011;912;48.130;11.348;2022-08-07T11:59:08;1.30;;;1.05;;
1825;SDS011;912;48.130;11.348;2022-08-07T12:02:35;2.00;;;1.20;;
1825;SDS011;912;48.130;11.348;2022-08-07T12:05:42;1.30;;;1.20;;
1825;SDS011;912;48.130;11.348;2022-08-07T12:08:28;1.23;;;1.12;;
1825;SDS011;912;48.130;11.348;2022-08-07T12:13:53;1.05;;;1.05;;
1825;SDS011;912;48.130;11.348;2022-08-07T12:16:52;1.67;;;1.00;;
1825;SDS011;912;48.130;11.348;2022-08-07T12:19:44;1.23;;;1.10;;
1825;SDS011;912;48.130;11.348;2022-08-07T12:22:27;1.30;;;1.10;;
1825;SDS011;912;48.130;11.348;2022-08-07T12:25:10;2.65;;;1.10;;
1825;SDS011;912;48.130;11.348;2022-08-07T12:28:01;1.80;;;1.35;;
1825;SDS011;912;48.130;11.348;2022-08-07T12:30:41;1.20;;;1.10;;
1825;SDS011;912;48.130;11.348;2022-08-07T12:35:49;1.70;;;1.10;;
1825;SDS011;912;48.130;11.348;2022-08-07T12:38:31;2.00;;;1.30;;
1825;SDS011;912;48.130;11.348;2022-08-07T12:41:12;1.23;;;1.12;;
1825;SDS011;912;48.130;11.348;2022-08-07T12:43:55;1.35;;;1.25;;
1825;SDS011;912;48.130;11.348;2022-08-07T12:46:46;3.90;;;1.50;;
1825;SDS011;912;48.130;11.348;2022-08-07T12:49:32;1.42;;;1.20;;
1825;SDS011;912;48.130;11.348;2022-08-07T12:52:38;1.25;;;1.02;;
1825;SDS011;912;48.130;11.348;2022-08-07T12:55:24;1.37;;;1.10;;
1825;SDS011;912;48.130;11.348;2022-08-07T12:58:04;1.25;;;1.15;;
1825;SDS011;912;48.130;11.348;2022-08-07T13:00:49;1.40;;;1.30;;
1825;SDS011;912;48.130;11.348;2022-08-07T13:10:33;2.47;;;1.10;;
1825;SDS011;912;48.130;11.348;2022-08-07T13:13:40;1.20;;;1.10;;
1825;SDS011;912;48.130;11.348;2022-08-07T13:16:26;1.33;;;1.23;;
1825;SDS011;912;48.130;11.348;2022-08-07T13:19:17;1.10;;;1.00;;
1825;SDS011;912;48.130;11.348;2022-08-07T13:22:03;1.20;;;1.10;;
1825;SDS011;912;48.130;11.348;2022-08-07T13:24:48;1.15;;;1.00;;
1825;SDS011;912;48.130;11.348;2022-08-07T13:27:33;1.45;;;1.35;;
1825;SDS011;912;48.130;11.348;2022-08-07T13:30:15;1.10;;;1.00;;
1825;SDS011;912;48.130;11.348;2022-08-07T13:33:00;1.30;;;1.20;;
1825;SDS011;912;48.130;11.348;2022-08-07T13:35:58;1.75;;;1.30;;
1825;SDS011;912;48.130;11.348;2022-08-07T13:38:46;1.30;;;1.20;;
1825;SDS011;912;48.130;11.348;2022-08-07T13:41:48;1.02;;;1.00;;
1825;SDS011;912;48.130;11.348;2022-08-07T13:44:30;1.40;;;1.20;;
1825;SDS011;912;48.130;11.348;2022-08-07T13:47:11;1.30;;;1.20;;
1825;SDS011;912;48.130;11.348;2022-08-07T13:49:52;1.25;;;1.08;;
1825;SDS011;912;48.130;11.348;2022-08-07T13:52:36;1.62;;;1.00;;
1825;SDS011;912;48.130;11.348;2022-08-07T13:55:19;2.05;;;1.17;;
1825;SDS011;912;48.130;11.348;2022-08-07T13:58:06;1.05;;;0.95;;
1825;SDS011;912;48.130;11.348;2022-08-07T14:01:07;1.20;;;1.10;;
1825;SDS011;912;48.130;11.348;2022-08-07T14:06:30;1.15;;;1.05;;
1825;SDS011;912;48.130;11.348;2022-08-07T14:09:15;1.27;;;1.10;;
1825;SDS011;912;48.130;11.348;2022-08-07T14:11:58;1.12;;;1.00;;
1825;SDS011;912;48.130;11.348;2022-08-07T14:14:42;1.50;;;1.40;;
1825;SDS011;912;48.130;11.348;2022-08-07T14:17:23;1.30;;;1.20;;
1825;SDS011;912;48.130;11.348;2022-08-07T14:20:09;1.25;;;1.15;;
1825;SDS011;912;48.130;11.348;2022-08-07T14:25:31;2.90;;;1.10;;
1825;SDS011;912;48.130;11.348;2022-08-07T14:28:13;0.90;;;0.90;;
1825;SDS011;912;48.130;11.348;2022-08-07T14:30:55;0.93;;;0.90;;
1825;SDS011;912;48.130;11.348;2022-08-07T14:35:53;2.35;;;1.20;;
1825;SDS011;912;48.130;11.348;2022-08-07T14:38:37;0.98;;;0.98;;
1825;SDS011;912;48.130;11.348;2022-08-07T14:41:24;1.87;;;1.00;;
1825;SDS011;912;48.130;11.348;2022-08-07T14:44:07;1.17;;;1.08;;
1825;SDS011;912;48.130;11.348;2022-08-07T14:46:47;1.42;;;1.20;;
1825;SDS011;912;48.130;11.348;2022-08-07T14:49:30;0.80;;;0.80;;
1825;SDS011;912;48.130;11.348;2022-08-07T14:52:10;0.90;;;0.80;;
1825;SDS011;912;48.130;11.348;2022-08-07T14:54:52;0.88;;;0.88;;
1825;SDS011;912;48.130;11.348;2022-08-07T14:57:37;1.25;;;1.15;;
1825;SDS011;912;48.130;11.348;2022-08-07T15:00:21;2.35;;;1.77;;
1825;SDS011;912;48.130;11.348;2022-08-07T15:03:04;2.00;;;1.73;;
1825;SDS011;912;48.130;11.348;2022-08-07T15:05:46;1.00;;;1.00;;
1825;SDS011;912;48.130;11.348;2022-08-07T15:08:31;0.90;;;0.90;;
1825;SDS011;912;48.130;11.348;2022-08-07T15:11:11;0.75;;;0.75;;
1825;SDS011;912;48.130;11.348;2022-08-07T15:16:32;0.80;;;0.80;;
1825;SDS011;912;48.130;11.348;2022-08-07T15:21:58;1.85;;;1.67;;
1825;SDS011;912;48.130;11.348;2022-08-07T15:24:46;1.42;;;1.33;;
1825;SDS011;912;48.130;11.348;2022-08-07T15:27:24;3.00;;;2.62;;
1825;SDS011;912;48.130;11.348;2022-08-07T15:30:11;5.50;;;4.20;;
1825;SDS011;912;48.130;11.348;2022-08-07T15:32:53;2.40;;;2.20;;
1825;SDS011;912;48.130;11.348;2022-08-07T15:35:53;1.60;;;1.50;;
1825;SDS011;912;48.130;11.348;2022-08-07T15:38:36;1.27;;;1.17;;
1825;SDS011;912;48.130;11.348;2022-08-07T15:41:16;1.35;;;1.25;;
1825;SDS011;912;48.130;11.348;2022-08-07T15:44:00;2.37;;;1.27;;
1825;SDS011;912;48.130;11.348;2022-08-07T15:46:43;1.40;;;1.20;;
1825;SDS011;912;48.130;11.348;2022-08-07T15:49:27;1.35;;;1.25;;
1825;SDS011;912;48.130;11.348;2022-08-07T15:52:10;1.40;;;1.27;;
1825;SDS011;912;48.130;11.348;2022-08-07T15:54:51;1.33;;;1.23;;
1825;SDS011;912;48.130;11.348;2022-08-07T15:57:33;1.50;;;1.10;;
1825;SDS011;912;48.130;11.348;2022-08-07T16:01:56;2.33;;;0.90;;
1825;SDS011;912;48.130;11.348;2022-08-07T16:04:37;1.40;;;1.10;;
1825;SDS011;912;48.130;11.348;2022-08-07T16:07:19;1.20;;;1.10;;
1825;SDS011;912;48.130;11.348;2022-08-07T16:10:06;1.55;;;1.45;;
1825;SDS011;912;48.130;11.348;2022-08-07T16:16:28;2.80;;;1.33;;
1825;SDS011;912;48.130;11.348;2022-08-07T16:19:31;1.60;;;1.00;;
1825;SDS011;912;48.130;11.348;2022-08-07T16:22:39;1.42;;;1.10;;
1825;SDS011;912;48.130;11.348;2022-08-07T16:25:17;1.33;;;1.10;;
1825;SDS011;912;48.130;11.348;2022-08-07T16:27:56;1.20;;;1.10;;
1825;SDS011;912;48.130;11.348;2022-08-07T16:30:48;1.60;;;1.30;;
1825;SDS011;912;48.130;11.348;2022-08-07T16:36:02;1.77;;;1.50;;
1825;SDS011;912;48.130;11.348;2022-08-07T16:38:51;1.35;;;1.25;;
1825;SDS011;912;48.130;11.348;2022-08-07T16:41:34;1.50;;;1.40;;
1825;SDS011;912;48.130;11.348;2022-08-07T16:44:29;2.03;;;1.37;;
1825;SDS011;912;48.130;11.348;2022-08-07T16:47:31;1.45;;;1.35;;
1825;SDS011;912;48.130;11.348;2022-08-07T16:50:15;1.40;;;1.30;;
1825;SDS011;912;48.130;11.348;2022-08-07T16:53:23;1.50;;;1.40;;
1825;SDS011;912;48.130;11.348;2022-08-07T16:56:12;1.58;;;1.33;;
1825;SDS011;912;48.130;11.348;2022-08-07T16:59:01;2.37;;;1.70;;
1825;SDS011;912;48.130;11.348;2022-08-07T17:01:58;1.45;;;1.35;;
1825;SDS011;912;48.130;11.348;2022-08-07T17:04:42;2.00;;;1.60;;
1825;SDS011;912;48.130;11.348;2022-08-07T17:07:30;1.50;;;1.40;;
1825;SDS011;912;48.130;11.348;2022-08-07T17:13:31;1.67;;;1.30;;
1825;SDS011;912;48.130;11.348;2022-08-07T17:16:21;2.53;;;1.70;;
1825;SDS011;912;48.130;11.348;2022-08-07T17:19:09;1.40;;;1.30;;
1825;SDS011;912;48.130;11.348;2022-08-07T17:21:57;1.75;;;1.45;;
1825;SDS011;912;48.130;11.348;2022-08-07T17:24:41;1.80;;;1.52;;
1825;SDS011;912;48.130;11.348;2022-08-07T17:29:51;1.70;;;1.60;;
1825;SDS011;912;48.130;11.348;2022-08-07T17:32:32;1.60;;;1.40;;
1825;SDS011;912;48.130;11.348;2022-08-07T17:35:51;6.23;;;3.60;;
1825;SDS011;912;48.130;11.348;2022-08-07T17:41:45;3.22;;;1.40;;
1825;SDS011;912;48.130;11.348;2022-08-07T17:44:32;1.70;;;1.60;;
1825;SDS011;912;48.130;11.348;2022-08-07T17:47:22;3.95;;;1.70;;
1825;SDS011;912;48.130;11.348;2022-08-07T17:50:15;1.67;;;1.58;;
1825;SDS011;912;48.130;11.348;2022-08-07T17:53:01;1.62;;;1.52;;
1825;SDS011;912;48.130;11.348;2022-08-07T17:55:47;1.80;;;1.30;;
1825;SDS011;912;48.130;11.348;2022-08-07T17:58:30;3.03;;;1.90;;
1825;SDS011;912;48.130;11.348;2022-08-07T18:01:19;1.48;;;1.37;;
1825;SDS011;912;48.130;11.348;2022-08-07T18:04:08;2.35;;;1.23;;
1825;SDS011;912;48.130;11.348;2022-08-07T18:06:57;2.00;;;1.50;;
1825;SDS011;912;48.130;11.348;2022-08-07T18:09:59;2.00;;;1.57;;
1825;SDS011;912;48.130;11.348;2022-08-07T18:13:09;1.60;;;1.50;;
1825;SDS011;912;48.130;11.348;2022-08-07T18:15:57;1.80;;;1.70;;
1825;SDS011;912;48.130;11.348;2022-08-07T18:19:06;1.73;;;1.62;;
1825;SDS011;912;48.130;11.348;2022-08-07T18:24:49;1.90;;;1.80;;
1825;SDS011;912;48.130;11.348;2022-08-07T18:27:35;2.42;;;1.80;;
1825;SDS011;912;48.130;11.348;2022-08-07T18:30:32;1.40;;;1.30;;
1825;SDS011;912;48.130;11.348;2022-08-07T18:35:59;1.48;;;1.23;;
1825;SDS011;912;48.130;11.348;2022-08-07T18:38:59;3.65;;;1.37;;
1825;SDS011;912;48.130;11.348;2022-08-07T18:44:38;1.58;;;1.40;;
1825;SDS011;912;48.130;11.348;2022-08-07T18:47:45;2.67;;;1.40;;
1825;SDS011;912;48.130;11.348;2022-08-07T18:53:28;1.60;;;1.40;;
1825;SDS011;912;48.130;11.348;2022-08-07T18:56:34;1.80;;;1.52;;
1825;SDS011;912;48.130;11.348;2022-08-07T18:59:24;1.60;;;1.40;;
1825;SDS011;912;48.130;11.348;2022-08-07T19:02:23;1.27;;;1.20;;
1825;SDS011;912;48.130;11.348;2022-08-07T19:05:09;2.20;;;1.70;;
1825;SDS011;912;48.130;11.348;2022-08-07T19:07:54;1.70;;;1.50;;
1825;SDS011;912;48.130;11.348;2022-08-07T19:10:34;1.60;;;1.33;;
1825;SDS011;912;48.130;11.348;2022-08-07T19:13:20;1.60;;;1.30;;
1825;SDS011;912;48.130;11.348;2022-08-07T19:18:31;1.70;;;1.50;;
1825;SDS011;912;48.130;11.348;2022-08-07T19:21:36;2.83;;;1.80;;